Terminal Aerodrome Forecast
Issued by NWS

Home | Current Version | Previous Version | Text Only | Print | Product List | Glossary On
Versions: 1 2 3 4 5 6 7 8 9 10 11 12 13 14
000
FTUS41 KBTV 292320
TAFRUT
TAF
KRUT 292320Z 3000/3024 34004KT P6SM SKC
     FM300100 13006KT P6SM SKC
     FM301200 00000KT P6SM FEW250
     FM301900 28005KT P6SM SCT040 BKN110
      AMD LTD TO CLD VIS AND WIND=

USA.gov is the U.S. government's official web portal to all federal, state and local government web resources and services.